Time;durP1;ratioP1;P1;durP2;ratioP2;P2;SDS_P1;SDS_P2;PMS_P1;PMS_P2;Temp;Humidity;BMP_temperature;BMP_pressure;BME280_temperature;BME280_humidity;BME280_pressure;Samples;Min_cycle;Max_cycle;Signal;HPM_P1;HPM_P2
2021/12/20 00:00:52;;;;;;;12.13;8.03;;;6.60;99.90;;;;;;5073384;28;20168;-85
2021/12/20 00:03:17;;;;;;;12.10;7.20;;;6.40;99.90;;;;;;5073826;28;20184;-83
2021/12/20 00:05:43;;;;;;;12.17;7.80;;;6.40;99.90;;;;;;5057022;28;20219;-78
2021/12/20 00:08:09;;;;;;;12.37;7.90;;;6.50;99.90;;;;;;5056754;28;20180;-79
2021/12/20 00:10:35;;;;;;;11.60;7.33;;;6.30;99.90;;;;;;5057073;28;20184;-82
2021/12/20 00:13:01;;;;;;;13.73;7.33;;;6.50;99.90;;;;;;5040283;28;20248;-83
2021/12/20 00:15:27;;;;;;;12.77;8.30;;;6.70;99.90;;;;;;5056351;28;20212;-77
2021/12/20 00:17:57;;;;;;;14.33;8.43;;;6.80;99.90;;;;;;5039954;28;20302;-83
2021/12/20 00:20:22;;;;;;;12.90;8.00;;;6.70;99.90;;;;;;5056621;28;20214;-79
2021/12/20 00:22:49;;;;;;;13.40;8.43;;;6.80;99.90;;;;;;5057536;28;20185;-84
2021/12/20 00:25:15;;;;;;;14.13;8.80;;;6.80;99.90;;;;;;5074435;28;20172;-84
2021/12/20 00:27:41;;;;;;;16.80;9.63;;;6.80;99.90;;;;;;5072403;28;20594;-84
2021/12/20 00:30:08;;;;;;;14.87;8.73;;;6.80;99.90;;;;;;5040183;28;20181;-84
2021/12/20 00:32:34;;;;;;;14.00;8.87;;;6.80;99.90;;;;;;5041226;28;20188;-84
2021/12/20 00:35:01;;;;;;;15.00;8.40;;;6.80;99.90;;;;;;5072724;28;20618;-83
2021/12/20 00:40:23;;;;;;;13.50;8.83;;;7.00;99.90;;;;;;5074762;28;20632;-77
2021/12/20 00:42:58;;;;;;;12.93;7.93;;;6.90;99.90;;;;;;5074874;28;20687;-79
2021/12/20 00:45:30;;;;;;;14.57;8.90;;;6.90;99.90;;;;;;5038918;28;20603;-80
2021/12/20 00:47:55;;;;;;;14.80;8.23;;;6.90;99.90;;;;;;5073729;28;20825;-79
2021/12/20 00:50:23;;;;;;;12.83;8.43;;;7.00;99.90;;;;;;5057044;28;20176;-78
2021/12/20 00:52:50;;;;;;;15.73;8.67;;;6.90;99.90;;;;;;5073475;28;20253;-78
2021/12/20 00:55:18;;;;;;;14.33;8.47;;;6.90;99.90;;;;;;5039194;28;20550;-78
2021/12/20 00:57:44;;;;;;;13.47;8.97;;;7.00;99.90;;;;;;5074917;28;20173;-84
2021/12/20 01:00:14;;;;;;;15.67;8.80;;;6.90;99.90;;;;;;5073313;28;20934;-82
2021/12/20 01:02:40;;;;;;;11.97;7.83;;;6.90;99.90;;;;;;5055662;28;20173;-81
2021/12/20 01:05:07;;;;;;;13.80;8.50;;;6.90;99.90;;;;;;5072816;28;20176;-79
2021/12/20 01:07:34;;;;;;;13.43;8.37;;;6.80;99.90;;;;;;5039252;28;20184;-84
2021/12/20 01:10:04;;;;;;;13.47;8.30;;;6.80;99.90;;;;;;5056187;28;20188;-85
2021/12/20 01:12:40;;;;;;;12.63;8.33;;;6.90;99.90;;;;;;5039765;28;20187;-84
2021/12/20 01:15:08;;;;;;;13.07;8.00;;;6.90;99.90;;;;;;5057405;28;20204;-85
2021/12/20 01:17:33;;;;;;;13.00;8.13;;;7.00;99.90;;;;;;5056507;28;20628;-84
2021/12/20 01:19:59;;;;;;;18.07;9.43;;;6.90;99.90;;;;;;5038132;28;20185;-84
2021/12/20 01:22:25;;;;;;;16.90;9.33;;;7.00;99.90;;;;;;5072495;28;20172;-80
2021/12/20 01:24:51;;;;;;;18.13;9.83;;;6.90;99.90;;;;;;5075036;28;20626;-83
2021/12/20 01:27:16;;;;;;;16.33;9.03;;;6.90;99.90;;;;;;5042527;28;20761;-84
2021/12/20 01:29:42;;;;;;;17.93;9.00;;;6.90;99.90;;;;;;5055581;28;20708;-84
2021/12/20 01:32:09;;;;;;;16.73;9.47;;;6.90;99.90;;;;;;5055380;28;20177;-78
2021/12/20 01:34:35;;;;;;;16.20;8.93;;;6.80;99.90;;;;;;5055651;28;20184;-83
2021/12/20 01:37:01;;;;;;;19.07;9.57;;;6.80;99.90;;;;;;5071847;28;20581;-79
2021/12/20 01:39:27;;;;;;;18.23;9.40;;;6.70;99.90;;;;;;5054363;28;20178;-84
2021/12/20 01:41:53;;;;;;;16.07;9.17;;;6.70;99.90;;;;;;5072783;28;20177;-82
2021/12/20 01:44:19;;;;;;;15.63;8.70;;;6.60;99.90;;;;;;5071172;28;20716;-79
2021/12/20 01:46:45;;;;;;;15.37;9.30;;;6.50;99.90;;;;;;5071948;28;20784;-79
2021/12/20 01:49:14;;;;;;;15.93;8.77;;;6.60;99.90;;;;;;5055235;28;20186;-84
2021/12/20 01:52:11;;;;;;;15.60;8.67;;;6.80;99.90;;;;;;5056752;28;20283;-84
2021/12/20 01:54:36;;;;;;;15.03;9.37;;;6.20;99.90;;;;;;5051709;28;20204;-84
2021/12/20 01:57:02;;;;;;;16.57;9.53;;;5.80;99.90;;;;;;5052700;28;20235;-79
2021/12/20 01:59:28;;;;;;;17.27;9.80;;;6.00;99.90;;;;;;5086176;28;20614;-84
2021/12/20 02:01:54;;;;;;;17.53;8.87;;;6.20;99.90;;;;;;5071340;28;20179;-84
2021/12/20 02:04:21;;;;;;;20.20;8.83;;;6.50;99.90;;;;;;5055610;28;20253;-79
2021/12/20 02:06:48;;;;;;;15.37;8.80;;;6.60;99.90;;;;;;5054925;28;20184;-84
2021/12/20 02:09:17;;;;;;;14.43;8.70;;;6.50;99.90;;;;;;5055903;28;20215;-79
2021/12/20 02:11:45;;;;;;;16.27;9.27;;;6.60;99.90;;;;;;5056273;28;20204;-85
2021/12/20 02:14:12;;;;;;;16.07;9.83;;;6.70;99.90;;;;;;5055249;28;20200;-86
2021/12/20 02:16:39;;;;;;;16.87;9.63;;;6.80;99.90;;;;;;5070668;28;20250;-84
2021/12/20 02:19:14;;;;;;;21.87;9.60;;;6.70;99.90;;;;;;5054183;28;20172;-84
2021/12/20 02:21:42;;;;;;;17.53;9.47;;;6.70;99.90;;;;;;5070985;28;20342;-76
2021/12/20 02:24:08;;;;;;;16.20;8.83;;;6.60;99.90;;;;;;5054089;28;20710;-79
2021/12/20 02:26:35;;;;;;;17.10;9.10;;;6.60;99.90;;;;;;5054380;28;20183;-79
2021/12/20 02:29:05;;;;;;;15.53;9.00;;;6.50;99.90;;;;;;5038110;28;20505;-85
2021/12/20 02:40:05;;;;;;;16.23;8.73;;;6.70;99.90;;;;;;5003596;28;20656;-83
2021/12/20 02:42:36;;;;;;;17.60;9.87;;;6.80;99.90;;;;;;5043210;28;20556;-79
2021/12/20 02:45:14;;;;;;;15.03;8.90;;;6.70;99.90;;;;;;5056320;28;20180;-81
2021/12/20 02:47:43;;;;;;;15.30;8.77;;;6.70;99.90;;;;;;5054150;28;20180;-77
2021/12/20 02:50:11;;;;;;;16.43;8.90;;;6.70;99.90;;;;;;5070709;28;20172;-78
2021/12/20 02:52:37;;;;;;;14.87;8.83;;;6.80;99.90;;;;;;5058927;28;20227;-84
2021/12/20 02:55:07;;;;;;;16.73;8.87;;;7.00;99.90;;;;;;5058568;28;20203;-78
2021/12/20 02:57:37;;;;;;;15.70;8.73;;;6.70;99.90;;;;;;5058075;28;20173;-79
2021/12/20 03:00:06;;;;;;;16.53;8.60;;;6.70;99.90;;;;;;5042023;28;20180;-79
2021/12/20 03:02:32;;;;;;;17.47;9.43;;;6.80;99.90;;;;;;5074570;28;20687;-79
2021/12/20 03:04:58;;;;;;;16.30;8.30;;;6.70;99.90;;;;;;5041619;28;20283;-78
2021/12/20 03:07:26;;;;;;;17.43;9.00;;;6.90;99.90;;;;;;5076372;28;20169;-78
2021/12/20 03:09:59;;;;;;;18.83;9.43;;;6.80;99.90;;;;;;5057972;28;20782;-84
2021/12/20 03:12:28;;;;;;;15.70;9.03;;;6.80;99.90;;;;;;5059624;28;20165;-84
2021/12/20 03:15:01;;;;;;;17.97;9.40;;;6.90;99.90;;;;;;5059407;28;20188;-83
2021/12/20 03:17:27;;;;;;;18.63;8.83;;;6.70;99.90;;;;;;5058385;28;20269;-78
2021/12/20 03:19:52;;;;;;;15.63;8.63;;;6.70;99.90;;;;;;5075189;28;20211;-79
2021/12/20 03:22:18;;;;;;;21.60;10.00;;;6.70;99.90;;;;;;5057296;28;20831;-82
2021/12/20 03:24:47;;;;;;;17.87;9.20;;;6.50;99.90;;;;;;5057128;28;20176;-78
2021/12/20 03:27:13;;;;;;;14.97;8.43;;;6.50;99.90;;;;;;5074630;28;20169;-85
2021/12/20 03:29:38;;;;;;;17.43;9.03;;;6.40;99.90;;;;;;5056869;28;20180;-82
2021/12/20 03:32:04;;;;;;;17.03;8.80;;;6.30;99.90;;;;;;5057769;28;20508;-79
2021/12/20 03:34:33;;;;;;;13.93;8.23;;;6.20;99.90;;;;;;5074296;28;20172;-84
2021/12/20 03:36:58;;;;;;;15.23;8.60;;;6.40;99.90;;;;;;5072605;28;20197;-82
2021/12/20 03:39:24;;;;;;;17.30;9.40;;;6.50;99.90;;;;;;5073656;28;20199;-83
2021/12/20 03:41:50;;;;;;;17.73;8.50;;;6.50;99.90;;;;;;5040898;28;20196;-77
2021/12/20 03:44:16;;;;;;;15.87;8.73;;;6.40;99.90;;;;;;5075938;28;20691;-83
2021/12/20 03:46:42;;;;;;;16.00;8.13;;;6.30;99.90;;;;;;5058442;28;20274;-78
2021/12/20 03:49:08;;;;;;;18.10;10.43;;;6.40;99.90;;;;;;5058842;28;20629;-78
2021/12/20 03:51:35;;;;;;;14.10;8.23;;;6.60;99.90;;;;;;5088758;28;20173;-83
2021/12/20 03:54:01;;;;;;;16.67;8.97;;;6.40;99.90;;;;;;5074962;28;20196;-79
2021/12/20 03:56:27;;;;;;;17.83;9.40;;;6.40;99.90;;;;;;5074356;28;20193;-79
2021/12/20 03:58:53;;;;;;;16.13;9.23;;;6.30;99.90;;;;;;5073389;28;20236;-84
2021/12/20 04:01:19;;;;;;;16.67;8.47;;;6.30;99.90;;;;;;5057081;28;20180;-77
2021/12/20 04:03:44;;;;;;;16.53;8.60;;;6.40;99.90;;;;;;5073184;28;20169;-82
2021/12/20 04:06:13;;;;;;;16.70;8.57;;;6.40;99.90;;;;;;5073001;28;20525;-84
2021/12/20 04:08:40;;;;;;;16.33;8.80;;;6.40;99.90;;;;;;5057038;28;20176;-77
2021/12/20 04:11:06;;;;;;;17.17;9.47;;;6.50;99.90;;;;;;5073684;28;20168;-78
2021/12/20 04:13:32;;;;;;;18.67;9.50;;;6.40;99.90;;;;;;5073875;28;20183;-78
2021/12/20 04:15:59;;;;;;;18.47;9.03;;;6.50;99.90;;;;;;5073850;28;20209;-83
2021/12/20 04:18:27;;;;;;;18.93;8.93;;;6.50;99.90;;;;;;5072740;28;20191;-77
2021/12/20 04:20:53;;;;;;;18.00;9.67;;;6.50;99.90;;;;;;5072923;28;20169;-78
2021/12/20 04:23:19;;;;;;;19.33;10.13;;;6.50;99.90;;;;;;5074757;28;20172;-84
2021/12/20 04:25:45;;;;;;;18.30;9.27;;;6.50;99.90;;;;;;5072442;28;20590;-84
2021/12/20 04:28:11;;;;;;;20.63;9.33;;;6.50;99.90;;;;;;5039222;28;20180;-83
2021/12/20 04:30:37;;;;;;;19.17;9.80;;;6.40;99.90;;;;;;5056912;28;20184;-83
2021/12/20 04:33:03;;;;;;;17.27;9.33;;;6.40;99.90;;;;;;5056778;28;20206;-83
2021/12/20 04:35:30;;;;;;;16.73;9.07;;;6.50;99.90;;;;;;5072184;28;20188;-83
2021/12/20 04:37:58;;;;;;;17.90;9.50;;;6.50;99.90;;;;;;5072646;28;20169;-83
2021/12/20 04:40:24;;;;;;;16.13;9.03;;;6.40;99.90;;;;;;5073332;28;20210;-83
2021/12/20 04:42:54;;;;;;;17.13;9.60;;;6.40;99.90;;;;;;5055663;28;20172;-78
2021/12/20 04:45:20;;;;;;;17.33;9.10;;;6.50;99.90;;;;;;5072796;28;20276;-82
2021/12/20 04:47:46;;;;;;;20.23;10.23;;;6.60;99.90;;;;;;5055855;28;20230;-77
2021/12/20 04:50:13;;;;;;;20.60;10.53;;;6.60;99.90;;;;;;5073402;28;20590;-78
2021/12/20 04:52:41;;;;;;;16.47;8.63;;;6.50;99.90;;;;;;5073607;28;20165;-77
2021/12/20 04:55:08;;;;;;;15.13;9.47;;;6.50;99.90;;;;;;5040762;28;20208;-80
2021/12/20 04:57:34;;;;;;;17.93;8.90;;;6.50;99.90;;;;;;5040461;28;20192;-83
2021/12/20 04:59:59;;;;;;;16.47;8.23;;;6.60;99.90;;;;;;5056662;28;20199;-78
2021/12/20 05:02:26;;;;;;;17.53;9.30;;;6.50;99.90;;;;;;5055969;28;20165;-83
2021/12/20 05:04:51;;;;;;;18.73;9.83;;;6.50;99.90;;;;;;5039922;28;20226;-80
2021/12/20 05:07:17;;;;;;;19.63;9.83;;;6.60;99.90;;;;;;5056445;28;20181;-84
2021/12/20 05:09:43;;;;;;;19.53;9.87;;;6.50;99.90;;;;;;5039000;28;20175;-78
2021/12/20 05:12:11;;;;;;;15.17;8.53;;;6.50;99.90;;;;;;5038869;28;20538;-77
2021/12/20 05:14:46;;;;;;;16.10;8.83;;;6.50;99.90;;;;;;5054511;28;20793;-77
2021/12/20 05:17:13;;;;;;;17.70;9.07;;;6.50;99.90;;;;;;5073214;28;20172;-84
2021/12/20 05:19:41;;;;;;;17.47;9.13;;;6.50;99.90;;;;;;5055910;28;20172;-78
2021/12/20 05:22:09;;;;;;;16.63;10.37;;;6.50;99.90;;;;;;5055422;28;20168;-84
2021/12/20 05:24:35;;;;;;;15.57;9.03;;;6.60;99.90;;;;;;5072549;28;20165;-83
2021/12/20 05:27:01;;;;;;;18.33;9.47;;;6.70;99.90;;;;;;5072572;28;20176;-83
2021/12/20 05:29:27;;;;;;;16.20;9.60;;;6.70;99.90;;;;;;5055531;28;20179;-82
2021/12/20 05:31:53;;;;;;;16.70;9.00;;;6.70;99.90;;;;;;5072210;28;20187;-79
2021/12/20 05:34:19;;;;;;;16.87;8.60;;;6.70;99.90;;;;;;5055184;28;20184;-79
2021/12/20 05:36:45;;;;;;;17.13;8.40;;;6.70;99.90;;;;;;5038150;28;20204;-84
2021/12/20 05:39:12;;;;;;;14.40;8.60;;;6.60;99.90;;;;;;5056081;28;20524;-84
2021/12/20 05:41:37;;;;;;;18.77;9.63;;;6.50;99.90;;;;;;5038602;28;20183;-79
2021/12/20 05:44:04;;;;;;;19.13;9.30;;;6.60;99.90;;;;;;5038771;28;20169;-86
2021/12/20 05:46:30;;;;;;;16.00;8.97;;;6.60;99.90;;;;;;5055109;28;20562;-84
2021/12/20 05:48:56;;;;;;;17.47;9.57;;;6.70;99.90;;;;;;5071962;28;20172;-84
2021/12/20 05:51:22;;;;;;;15.97;8.83;;;6.60;99.90;;;;;;5055771;28;20666;-84
2021/12/20 05:53:48;;;;;;;18.70;9.57;;;6.60;99.90;;;;;;5073593;28;20202;-84
2021/12/20 05:56:14;;;;;;;18.43;9.80;;;6.60;99.90;;;;;;5070942;28;20767;-84
2021/12/20 05:58:40;;;;;;;18.00;9.30;;;6.70;99.90;;;;;;5072022;28;20173;-83
2021/12/20 06:01:06;;;;;;;17.50;8.87;;;6.60;99.90;;;;;;5072771;28;20180;-84
2021/12/20 06:03:32;;;;;;;21.87;10.07;;;6.50;99.90;;;;;;5072502;28;20168;-78
2021/12/20 06:05:58;;;;;;;19.80;9.67;;;6.50;99.90;;;;;;5071302;28;20180;-85
2021/12/20 06:08:23;;;;;;;18.03;9.10;;;6.40;99.90;;;;;;5073626;28;20264;-78
2021/12/20 06:10:49;;;;;;;19.90;9.83;;;6.20;99.90;;;;;;5055406;28;20180;-87
2021/12/20 06:13:15;;;;;;;19.47;9.10;;;6.30;99.90;;;;;;5054662;28;20172;-77
2021/12/20 06:15:41;;;;;;;20.00;9.77;;;6.40;99.90;;;;;;5070941;28;20577;-85
2021/12/20 06:18:07;;;;;;;18.70;9.77;;;6.50;99.90;;;;;;5038972;28;20643;-79
2021/12/20 06:20:32;;;;;;;15.63;9.03;;;6.40;99.90;;;;;;5055141;28;20184;-78
2021/12/20 06:22:58;;;;;;;21.60;9.43;;;6.50;99.90;;;;;;5054656;28;20172;-85
2021/12/20 06:25:26;;;;;;;13.97;8.40;;;6.50;99.90;;;;;;5054690;28;20172;-81
2021/12/20 06:27:53;;;;;;;16.37;8.30;;;6.30;99.90;;;;;;5054679;28;20195;-77
2021/12/20 06:30:18;;;;;;;20.57;9.47;;;6.40;99.90;;;;;;5070813;28;20636;-79
2021/12/20 06:32:45;;;;;;;20.63;9.13;;;6.40;99.90;;;;;;5038325;28;20176;-77
2021/12/20 06:35:15;;;;;;;17.27;9.17;;;6.40;99.90;;;;;;5054751;28;20196;-78
2021/12/20 06:37:47;;;;;;;22.93;10.30;;;6.30;99.90;;;;;;5072188;28;20172;-78
2021/12/20 06:40:14;;;;;;;18.63;8.77;;;6.50;99.90;;;;;;5038883;28;20187;-77
2021/12/20 06:42:40;;;;;;;17.50;9.00;;;6.50;99.90;;;;;;5075094;28;20191;-79
2021/12/20 06:45:07;;;;;;;16.13;9.07;;;6.60;99.90;;;;;;5037102;28;20635;-88
2021/12/20 06:47:35;;;;;;;15.83;8.67;;;6.60;99.90;;;;;;5038397;28;20200;-78
2021/12/20 06:50:02;;;;;;;18.80;9.03;;;6.70;99.90;;;;;;5053827;28;20647;-86
2021/12/20 06:52:28;;;;;;;16.07;9.10;;;6.60;99.90;;;;;;5071614;28;20172;-86
2021/12/20 06:54:54;;;;;;;20.07;9.47;;;6.60;99.90;;;;;;5053102;28;20198;-77
2021/12/20 06:57:22;;;;;;;17.53;9.43;;;6.60;99.90;;;;;;5054236;28;20310;-84
2021/12/20 06:59:49;;;;;;;14.93;8.77;;;6.70;99.90;;;;;;5072693;28;20184;-78
2021/12/20 07:02:17;;;;;;;18.13;8.47;;;6.60;99.90;;;;;;5070385;28;20226;-84
2021/12/20 07:04:43;;;;;;;17.67;8.63;;;6.60;99.90;;;;;;5055209;28;20179;-85
2021/12/20 07:07:09;;;;;;;14.60;8.03;;;6.60;99.90;;;;;;5022172;28;20267;-78
2021/12/20 07:09:38;;;;;;;16.50;8.63;;;6.60;99.90;;;;;;5037765;28;20185;-78
2021/12/20 07:12:04;;;;;;;15.77;8.90;;;6.60;99.90;;;;;;5053475;28;20177;-83
2021/12/20 07:14:30;;;;;;;16.50;8.40;;;6.60;99.90;;;;;;5071614;28;20195;-83
2021/12/20 07:16:56;;;;;;;15.73;9.13;;;6.60;99.90;;;;;;5037799;28;20244;-82
2021/12/20 07:19:25;;;;;;;16.17;8.47;;;6.60;99.90;;;;;;5037798;28;20169;-78
2021/12/20 07:21:54;;;;;;;18.90;8.30;;;6.60;99.90;;;;;;5070170;28;20632;-79
2021/12/20 07:24:20;;;;;;;16.83;8.23;;;6.50;99.90;;;;;;5053188;28;20176;-84
2021/12/20 07:26:46;;;;;;;15.70;8.13;;;6.60;99.90;;;;;;5070522;28;20212;-86
2021/12/20 07:29:12;;;;;;;15.13;8.00;;;6.50;99.90;;;;;;5070108;28;20177;-86
2021/12/20 07:31:37;;;;;;;18.23;8.63;;;6.60;99.90;;;;;;5025523;28;20185;-78
2021/12/20 07:34:04;;;;;;;14.37;8.00;;;6.50;99.90;;;;;;5053891;28;20192;-85
2021/12/20 07:36:30;;;;;;;17.07;9.30;;;6.40;99.90;;;;;;5070310;28;20569;-78
2021/12/20 07:38:56;;;;;;;15.73;9.03;;;6.60;99.90;;;;;;5041323;28;20169;-77
2021/12/20 07:41:23;;;;;;;15.60;8.40;;;6.60;99.90;;;;;;5091313;28;20173;-84
2021/12/20 07:43:50;;;;;;;16.03;8.03;;;6.60;99.90;;;;;;5041044;28;20551;-78
2021/12/20 07:46:18;;;;;;;15.30;8.23;;;6.80;99.90;;;;;;5073685;28;20626;-78
2021/12/20 07:48:45;;;;;;;13.73;8.20;;;7.10;99.90;;;;;;5074250;28;20168;-77
2021/12/20 07:51:11;;;;;;;14.30;7.97;;;7.30;99.90;;;;;;5074370;28;20164;-85
2021/12/20 07:53:37;;;;;;;16.67;8.73;;;7.30;99.90;;;;;;5055788;28;20173;-78
2021/12/20 07:56:04;;;;;;;17.97;8.37;;;7.40;99.90;;;;;;5056280;28;20667;-78
2021/12/20 07:58:30;;;;;;;15.50;8.53;;;7.40;99.90;;;;;;5057909;28;20199;-76
2021/12/20 08:00:58;;;;;;;14.57;8.83;;;7.50;99.90;;;;;;5036691;28;20642;-83
2021/12/20 08:03:23;;;;;;;16.87;9.30;;;7.50;99.90;;;;;;5061250;28;20168;-78
2021/12/20 08:05:50;;;;;;;15.03;8.20;;;7.30;99.90;;;;;;5072733;28;20204;-78
2021/12/20 08:08:17;;;;;;;15.30;8.90;;;7.20;99.90;;;;;;5054812;28;20685;-87
2021/12/20 08:10:45;;;;;;;17.87;9.07;;;7.10;99.90;;;;;;5056581;28;20180;-86
2021/12/20 08:13:12;;;;;;;16.03;8.77;;;7.00;99.90;;;;;;5071568;28;20180;-81
2021/12/20 08:15:39;;;;;;;16.97;9.17;;;7.00;99.90;;;;;;5037323;28;20211;-84
2021/12/20 08:18:06;;;;;;;16.10;8.70;;;6.90;99.90;;;;;;5069568;28;20177;-84
2021/12/20 08:20:32;;;;;;;17.60;8.93;;;6.80;99.90;;;;;;5063793;28;20769;-85
2021/12/20 08:22:58;;;;;;;17.57;8.53;;;6.80;99.90;;;;;;5054969;28;20181;-83
2021/12/20 08:25:24;;;;;;;16.70;8.63;;;6.80;99.90;;;;;;5070914;28;20180;-77
2021/12/20 08:27:51;;;;;;;18.13;8.83;;;6.70;99.90;;;;;;5067418;28;20181;-83
2021/12/20 08:30:18;;;;;;;18.03;8.90;;;6.70;99.90;;;;;;5034910;28;20185;-76
2021/12/20 08:32:44;;;;;;;16.93;8.47;;;6.80;99.90;;;;;;5035963;28;20576;-76
2021/12/20 08:35:11;;;;;;;16.97;8.57;;;7.00;99.90;;;;;;5084827;28;20534;-85
2021/12/20 08:37:41;;;;;;;19.63;9.57;;;6.90;99.90;;;;;;5085618;28;20184;-77
2021/12/20 08:40:10;;;;;;;17.10;8.73;;;6.90;99.90;;;;;;5067955;28;20619;-77
2021/12/20 08:42:37;;;;;;;17.93;9.43;;;6.80;99.90;;;;;;5035935;28;20240;-77
2021/12/20 08:45:05;;;;;;;19.90;9.43;;;6.80;99.90;;;;;;5069069;28;20686;-77
2021/12/20 08:47:32;;;;;;;16.13;8.83;;;6.80;99.90;;;;;;5083347;28;20177;-82
2021/12/20 08:50:04;;;;;;;18.53;9.33;;;6.90;99.90;;;;;;5085286;28;20774;-76
2021/12/20 08:52:30;;;;;;;20.57;9.70;;;6.80;99.90;;;;;;5053724;28;20693;-79
2021/12/20 08:54:56;;;;;;;17.73;8.57;;;6.80;99.90;;;;;;5050072;28;20570;-77
2021/12/20 08:57:22;;;;;;;17.07;8.37;;;6.80;99.90;;;;;;5051444;28;20180;-80
2021/12/20 08:59:48;;;;;;;16.23;8.43;;;6.90;99.90;;;;;;5050671;28;20181;-79
2021/12/20 09:02:14;;;;;;;18.47;8.93;;;6.90;99.90;;;;;;5068134;28;20184;-81
2021/12/20 09:04:40;;;;;;;16.73;8.93;;;7.00;99.90;;;;;;5070106;28;20624;-81
2021/12/20 09:07:08;;;;;;;15.63;8.67;;;6.90;99.90;;;;;;5052732;28;20233;-80
2021/12/20 09:09:39;;;;;;;16.47;8.63;;;6.60;99.90;;;;;;5086260;28;20671;-78
2021/12/20 09:12:06;;;;;;;18.10;9.43;;;6.70;99.90;;;;;;5039613;28;20311;-83
2021/12/20 09:14:33;;;;;;;17.73;9.13;;;6.90;99.90;;;;;;5039695;28;20231;-90
2021/12/20 09:17:01;;;;;;;18.23;8.27;;;6.90;99.90;;;;;;5074062;28;20215;-90
2021/12/20 09:19:27;;;;;;;14.93;9.00;;;6.90;99.90;;;;;;5040985;28;20198;-85
2021/12/20 09:21:53;;;;;;;18.43;10.13;;;6.90;99.90;;;;;;5057825;28;20267;-78
2021/12/20 09:24:22;;;;;;;19.53;9.17;;;6.90;99.90;;;;;;5055890;28;20211;-80
2021/12/20 09:26:48;;;;;;;16.23;7.80;;;6.90;99.90;;;;;;5074113;28;20624;-86
2021/12/20 09:29:14;;;;;;;22.57;8.17;;;6.90;99.90;;;;;;5075650;28;20188;-84
2021/12/20 09:31:39;;;;;;;14.43;8.63;;;6.90;99.90;;;;;;5040270;28;20274;-84
2021/12/20 09:34:05;;;;;;;14.73;8.10;;;7.10;99.90;;;;;;5040536;28;20196;-80
2021/12/20 09:36:33;;;;;;;15.27;8.30;;;7.00;99.90;;;;;;5088741;28;20291;-82
2021/12/20 09:39:00;;;;;;;19.30;9.53;;;7.00;99.90;;;;;;5089755;28;20176;-83
2021/12/20 09:44:06;;;;;;;16.20;9.00;;;7.00;99.90;;;;;;5071791;28;20226;-79
2021/12/20 09:46:32;;;;;;;14.07;8.87;;;6.70;99.90;;;;;;5069906;28;20196;-80
2021/12/20 09:49:00;;;;;;;18.13;8.90;;;6.70;99.90;;;;;;5072506;28;20195;-82
2021/12/20 09:51:26;;;;;;;16.70;9.20;;;6.80;99.90;;;;;;5070689;28;20188;-82
2021/12/20 09:53:55;;;;;;;18.43;9.20;;;6.90;99.90;;;;;;5087912;28;20184;-83
2021/12/20 09:56:24;;;;;;;23.33;10.40;;;7.10;99.90;;;;;;5072182;28;20690;-83
2021/12/20 09:58:53;;;;;;;20.97;9.73;;;7.10;99.90;;;;;;5056154;28;20169;-82
2021/12/20 10:01:21;;;;;;;17.77;9.40;;;7.20;99.90;;;;;;5054351;28;20206;-82
2021/12/20 10:03:48;;;;;;;14.97;9.07;;;7.20;99.90;;;;;;5070481;28;20184;-82
2021/12/20 10:06:14;;;;;;;19.23;9.60;;;7.20;99.90;;;;;;5070844;28;20224;-83
2021/12/20 10:08:49;;;;;;;21.40;10.73;;;7.20;99.90;;;;;;5054577;28;20185;-82
2021/12/20 10:11:27;;;;;;;17.17;10.50;;;7.30;99.90;;;;;;5055643;28;20180;-83
2021/12/20 10:14:05;;;;;;;17.30;9.60;;;7.20;99.90;;;;;;5070861;28;20168;-79
2021/12/20 10:16:32;;;;;;;18.40;10.50;;;7.30;99.90;;;;;;5053237;28;20662;-82
2021/12/20 10:19:00;;;;;;;22.77;10.97;;;7.30;99.90;;;;;;5036846;28;20176;-82
2021/12/20 10:21:41;;;;;;;23.50;10.93;;;7.40;99.90;;;;;;5037056;28;20176;-82
2021/12/20 10:24:07;;;;;;;19.67;10.10;;;7.30;99.90;;;;;;5070442;28;20215;-83
2021/12/20 10:26:42;;;;;;;20.13;10.40;;;7.40;99.90;;;;;;5070169;28;20184;-82
2021/12/20 10:29:19;;;;;;;21.37;11.47;;;7.40;99.90;;;;;;5054173;28;20203;-83
2021/12/20 10:31:46;;;;;;;20.93;11.33;;;7.50;99.90;;;;;;5053762;28;20267;-82
2021/12/20 10:34:13;;;;;;;18.93;10.10;;;7.70;99.90;;;;;;5053599;28;20188;-80
2021/12/20 10:36:54;;;;;;;18.80;10.33;;;7.70;99.90;;;;;;5070094;28;20200;-80
2021/12/20 10:39:41;;;;;;;19.67;11.07;;;7.70;99.90;;;;;;5053923;28;20172;-80
2021/12/20 10:42:23;;;;;;;21.40;11.00;;;7.70;99.90;;;;;;5037112;28;20285;-82
2021/12/20 10:45:13;;;;;;;20.53;10.80;;;7.70;99.90;;;;;;5037762;28;20180;-80
2021/12/20 10:47:40;;;;;;;18.60;10.40;;;7.80;99.90;;;;;;5053644;28;20192;-81
2021/12/20 10:50:25;;;;;;;17.73;9.80;;;7.70;99.90;;;;;;5036699;28;20180;-82
2021/12/20 10:53:21;;;;;;;19.63;9.73;;;7.60;99.90;;;;;;5052988;28;20256;-80
2021/12/20 10:56:03;;;;;;;17.43;9.37;;;7.50;99.90;;;;;;5038040;28;20200;-82
2021/12/20 10:58:35;;;;;;;22.43;9.60;;;7.40;99.90;;;;;;5036482;28;20176;-81
2021/12/20 11:01:18;;;;;;;16.10;8.10;;;7.30;99.90;;;;;;5047822;28;20222;-79
2021/12/20 11:03:58;;;;;;;13.43;7.13;;;7.20;99.90;;;;;;5053541;28;20275;-82
2021/12/20 11:06:26;;;;;;;14.50;7.77;;;7.10;99.90;;;;;;5071874;28;20635;-82
2021/12/20 11:09:06;;;;;;;13.33;7.27;;;7.10;99.90;;;;;;5070238;28;20175;-81
2021/12/20 11:11:34;;;;;;;15.87;7.77;;;7.10;99.90;;;;;;5023992;28;20168;-85
2021/12/20 11:14:03;;;;;;;12.77;7.37;;;7.20;99.90;;;;;;5074156;28;20533;-79
2021/12/20 11:16:50;;;;;;;11.67;6.50;;;7.60;99.90;;;;;;5040764;28;20585;-81
2021/12/20 11:19:18;;;;;;;12.97;6.57;;;7.50;99.90;;;;;;5057333;28;20233;-81
2021/12/20 11:21:51;;;;;;;11.00;6.53;;;7.60;99.90;;;;;;5057387;28;20179;-80
2021/12/20 11:24:23;;;;;;;10.57;6.50;;;7.70;99.90;;;;;;5056843;28;20180;-81
2021/12/20 11:26:50;;;;;;;11.70;7.00;;;7.80;99.90;;;;;;5039901;28;20215;-82
2021/12/20 11:29:16;;;;;;;14.60;6.70;;;7.80;99.90;;;;;;5057244;28;20819;-81
2021/12/20 11:31:42;;;;;;;11.00;6.50;;;7.80;99.90;;;;;;5024002;28;20250;-83
2021/12/20 11:34:08;;;;;;;10.43;6.20;;;8.00;99.90;;;;;;5074259;28;20271;-81
2021/12/20 11:36:35;;;;;;;14.23;6.60;;;8.20;99.90;;;;;;5042715;28;20229;-81
2021/12/20 11:39:03;;;;;;;10.77;6.50;;;8.40;99.90;;;;;;5041271;28;20653;-82
2021/12/20 11:41:29;;;;;;;13.57;7.07;;;8.70;99.90;;;;;;5057676;28;20187;-81
2021/12/20 11:43:56;;;;;;;11.70;7.20;;;8.60;99.90;;;;;;5039904;28;20184;-82
2021/12/20 11:46:28;;;;;;;12.10;7.00;;;8.80;99.90;;;;;;5056497;28;20272;-87
2021/12/20 11:48:56;;;;;;;10.17;5.53;;;9.00;99.90;;;;;;5058032;28;20168;-81
2021/12/20 11:51:24;;;;;;;14.97;7.60;;;9.10;99.90;;;;;;5056402;28;20184;-80
2021/12/20 11:53:49;;;;;;;15.77;8.53;;;9.10;99.90;;;;;;5055711;28;20679;-81
2021/12/20 11:56:15;;;;;;;17.60;9.50;;;8.80;99.90;;;;;;5073255;28;20246;-83
2021/12/20 11:58:47;;;;;;;16.03;9.10;;;8.50;99.90;;;;;;5039622;28;20501;-81
2021/12/20 12:01:19;;;;;;;17.63;8.80;;;8.30;99.90;;;;;;5039767;28;20180;-80
2021/12/20 12:04:11;;;;;;;17.77;8.33;;;8.20;99.90;;;;;;5040192;28;20184;-82
2021/12/20 12:06:38;;;;;;;14.93;8.53;;;8.10;99.90;;;;;;5039350;28;20262;-81
2021/12/20 12:09:04;;;;;;;16.17;7.33;;;8.10;99.90;;;;;;5039465;28;20207;-81
2021/12/20 12:11:33;;;;;;;16.13;8.07;;;8.10;99.90;;;;;;5039907;28;20181;-81
2021/12/20 12:14:07;;;;;;;15.87;7.90;;;8.20;99.90;;;;;;5056054;28;20243;-82
2021/12/20 12:16:49;;;;;;;14.40;7.50;;;8.20;99.90;;;;;;5072476;28;20258;-81
2021/12/20 12:19:47;;;;;;;14.23;7.23;;;8.00;99.90;;;;;;5056182;28;20196;-81
2021/12/20 12:22:33;;;;;;;14.27;6.93;;;8.00;99.90;;;;;;5056372;28;20177;-80
2021/12/20 12:25:01;;;;;;;11.90;6.43;;;8.00;99.90;;;;;;5055817;28;20173;-80
2021/12/20 12:27:29;;;;;;;15.63;7.00;;;8.00;99.90;;;;;;5039441;28;20180;-79
2021/12/20 12:30:16;;;;;;;11.97;6.47;;;7.90;99.90;;;;;;5073221;28;20255;-80
2021/12/20 12:32:48;;;;;;;10.47;5.97;;;7.90;99.90;;;;;;5055525;28;20275;-81
2021/12/20 12:35:39;;;;;;;10.77;5.43;;;8.00;99.90;;;;;;5072266;28;20176;-82
2021/12/20 12:38:28;;;;;;;11.90;5.73;;;7.90;99.90;;;;;;5072772;28;20173;-80
2021/12/20 12:41:15;;;;;;;9.97;5.83;;;7.90;99.90;;;;;;5073912;28;20169;-83
2021/12/20 12:44:19;;;;;;;9.07;4.80;;;7.90;99.90;;;;;;5040865;28;20184;-79
2021/12/20 12:46:47;;;;;;;9.43;4.97;;;7.70;99.90;;;;;;5073253;28;20213;-83
2021/12/20 12:49:22;;;;;;;10.37;5.10;;;7.80;99.90;;;;;;5039844;28;20498;-83
2021/12/20 12:51:51;;;;;;;9.90;5.00;;;7.90;99.90;;;;;;5056207;28;20180;-81
2021/12/20 12:54:32;;;;;;;9.43;5.20;;;7.80;99.90;;;;;;5057073;28;20246;-82
2021/12/20 12:57:10;;;;;;;10.83;5.63;;;7.80;99.90;;;;;;5055293;28;20258;-80
2021/12/20 12:59:58;;;;;;;10.90;6.00;;;7.70;99.90;;;;;;5056319;28;20164;-80
2021/12/20 13:02:29;;;;;;;12.13;5.90;;;7.60;99.90;;;;;;5054583;28;20179;-81
2021/12/20 13:04:58;;;;;;;10.00;6.07;;;7.60;99.90;;;;;;5056221;28;20157;-80
2021/12/20 13:07:26;;;;;;;10.90;5.83;;;7.50;99.90;;;;;;5054612;28;20206;-81